Alabaster, Alabama
Current Conditions -  °F | °C
As of 7:53 PM on Thursday 20 Nov 2014 (Local Time) from KEET Reporting Station
Overcast Overcast  
Wind Chill: 49°   Ceiling: 8000
Heat Index: 49°   Visibility: 10mi
Dew Point: 45°   Wind: 0mph
Humidity: 86%   Direction: NA
Pressure: 30.24"   Gusts: NA
Location:  33.25°N, 86.82°W
Report Text: KEET 210153Z AUTO 00000KT 10SM FEW050 OVC080 09/07 A3024 RMK AO2 SLP240 T00940072
Loading
Personal Weather Stations






























Interactive Weather Map New forecast layout! Learn more

10-Day Weather Forecast

Advertisements
Track Severe Weather on mobile